createdAt,value
2023-01-21T00:01:09.965Z,92.59
2023-01-21T00:03:38.512Z,92.44
2023-01-21T00:06:07.053Z,91.64
2023-01-21T00:08:34.972Z,92.65
2023-01-21T00:11:06.506Z,92.70
2023-01-21T00:13:36.707Z,89.90
2023-01-21T00:16:05.300Z,91.88
2023-01-21T00:18:33.537Z,89.89
2023-01-21T00:21:01.700Z,88.16
2023-01-21T00:23:29.519Z,88.96
2023-01-21T00:26:00.647Z,88.95
2023-01-21T00:28:32.423Z,89.71
2023-01-21T00:31:03.242Z,89.32
2023-01-21T00:33:32.554Z,89.43
2023-01-21T00:36:01.442Z,88.20
2023-01-21T00:38:29.264Z,90.39
2023-01-21T00:41:01.313Z,89.57
2023-01-21T00:43:29.113Z,89.99
2023-01-21T00:45:56.996Z,90.43
2023-01-21T00:48:26.923Z,90.04
2023-01-21T00:50:56.097Z,90.96
2023-01-21T00:53:24.186Z,92.40
2023-01-21T00:55:51.890Z,90.44
2023-01-21T00:58:19.863Z,90.25
2023-01-21T01:00:47.551Z,90.28
2023-01-21T01:03:15.324Z,91.85
2023-01-21T01:05:44.504Z,92.54
2023-01-21T01:08:12.193Z,91.86
2023-01-21T01:10:40.121Z,91.10
2023-01-21T01:13:07.833Z,91.43
2023-01-21T01:15:35.601Z,91.26
2023-01-21T01:18:03.442Z,91.43
2023-01-21T01:20:31.225Z,90.68
2023-01-21T01:23:00.288Z,90.99
2023-01-21T01:25:27.991Z,91.95
2023-01-21T01:27:55.723Z,93.18
2023-01-21T01:30:23.488Z,92.44
2023-01-21T01:32:51.256Z,91.35
2023-01-21T01:35:19.059Z,90.26
2023-01-21T01:37:46.745Z,94.50
2023-01-21T01:40:16.328Z,94.12
2023-01-21T01:42:44.284Z,92.15
2023-01-21T01:45:19.076Z,89.41
2023-01-21T01:47:50.110Z,92.39
2023-01-21T01:50:21.290Z,93.33
2023-01-21T01:52:49.138Z,90.98
2023-01-21T01:55:18.425Z,91.35
2023-01-21T01:57:52.451Z,91.52
2023-01-21T02:00:21.611Z,91.61
2023-01-21T02:03:03.415Z,90.47
2023-01-21T02:05:32.386Z,90.44
2023-01-21T02:08:00.791Z,87.40
2023-01-21T02:10:31.721Z,89.40
2023-01-21T02:12:59.634Z,90.67
2023-01-21T02:15:34.689Z,90.73
2023-01-21T02:18:13.061Z,89.75
2023-01-21T02:21:10.493Z,87.73
2023-01-21T02:24:00.523Z,92.52
2023-01-21T02:27:03.982Z,92.74
2023-01-21T02:29:52.686Z,91.79
2023-01-21T02:32:45.499Z,88.03
2023-01-21T02:35:19.689Z,90.19
2023-01-21T02:37:53.545Z,91.18
2023-01-21T02:40:30.395Z,90.73
2023-01-21T02:43:04.789Z,90.60
2023-01-21T02:45:39.494Z,89.47
2023-01-21T02:48:11.736Z,86.21
2023-01-21T02:50:45.268Z,86.80
2023-01-21T02:53:22.791Z,87.17
2023-01-21T02:55:50.770Z,87.48
2023-01-21T02:58:22.255Z,87.72
2023-01-21T03:01:00.889Z,86.97
2023-01-21T03:03:43.430Z,87.58
2023-01-21T03:06:39.253Z,88.25
2023-01-21T03:09:18.762Z,89.53
2023-01-21T03:11:55.035Z,88.48
2023-01-21T03:14:46.228Z,87.95
2023-01-21T03:17:22.067Z,89.84
2023-01-21T03:19:57.562Z,91.28
2023-01-21T03:22:30.696Z,89.19
2023-01-21T03:24:59.764Z,90.09
2023-01-21T03:27:31.135Z,90.42
2023-01-21T03:30:03.608Z,91.12
2023-01-21T03:32:34.023Z,90.28
2023-01-21T03:35:03.216Z,88.67
2023-01-21T03:37:38.120Z,88.86
2023-01-21T03:40:19.120Z,90.01
2023-01-21T03:42:50.417Z,90.99
2023-01-21T03:45:20.088Z,91.79
2023-01-21T03:47:55.507Z,91.67
2023-01-21T03:50:28.486Z,91.58
2023-01-21T03:52:57.798Z,91.72
2023-01-21T03:55:25.569Z,91.26
2023-01-21T03:57:53.340Z,91.49
2023-01-21T04:00:21.459Z,90.57
2023-01-21T04:02:49.218Z,91.60
2023-01-21T04:05:17.007Z,90.42
2023-01-21T04:07:44.774Z,90.93
2023-01-21T04:10:14.177Z,93.20
2023-01-21T04:12:42.054Z,92.61
2023-01-21T04:15:11.145Z,91.28
2023-01-21T04:17:38.939Z,91.57
2023-01-21T04:20:09.075Z,88.01
2023-01-21T04:22:36.898Z,86.32
2023-01-21T04:25:05.231Z,87.06
2023-01-21T04:27:34.423Z,89.79
2023-01-21T04:30:02.208Z,89.48
2023-01-21T04:32:29.914Z,91.01
2023-01-21T04:34:57.720Z,90.31
2023-01-21T04:37:25.587Z,90.89
2023-01-21T04:39:53.334Z,92.30
2023-01-21T04:42:21.154Z,92.84
2023-01-21T04:44:50.248Z,91.81
2023-01-21T04:47:18.068Z,95.02
2023-01-21T04:49:45.829Z,94.63
2023-01-21T04:52:13.588Z,94.48
2023-01-21T04:54:41.328Z,95.49
2023-01-21T04:57:10.791Z,94.46
2023-01-21T04:59:38.770Z,97.08
2023-01-21T05:02:07.969Z,97.37
2023-01-21T05:04:35.881Z,94.53
2023-01-21T05:07:03.659Z,94.46
2023-01-21T05:09:31.417Z,93.70
2023-01-21T05:11:59.258Z,93.19
2023-01-21T05:14:27.056Z,92.55
2023-01-21T05:16:54.858Z,92.65
2023-01-21T05:19:24.146Z,91.91
2023-01-21T05:21:52.042Z,91.27
2023-01-21T05:24:19.822Z,89.78
2023-01-21T05:26:49.588Z,91.67
2023-01-21T05:29:17.874Z,91.09
2023-01-21T05:31:46.060Z,92.88
2023-01-21T05:34:14.198Z,91.80
2023-01-21T05:36:43.355Z,91.79
2023-01-21T05:39:11.132Z,94.79
2023-01-21T05:41:38.831Z,94.21
2023-01-21T05:44:07.069Z,94.12
2023-01-21T05:46:34.878Z,93.71
2023-01-21T05:49:02.627Z,93.53
2023-01-21T05:51:30.422Z,93.27
2023-01-21T05:53:59.478Z,92.48
2023-01-21T05:56:27.296Z,92.64
2023-01-21T05:58:54.994Z,93.97
2023-01-21T06:01:22.746Z,93.58
2023-01-21T06:03:50.528Z,93.62
2023-01-21T06:06:18.313Z,93.24
2023-01-21T06:08:46.103Z,93.27
2023-01-21T06:11:15.243Z,93.72
2023-01-21T06:13:43.036Z,93.81
2023-01-21T06:16:10.884Z,93.56
2023-01-21T06:18:38.693Z,94.00
2023-01-21T06:21:06.851Z,92.80
2023-01-21T06:23:34.611Z,92.17
2023-01-21T06:26:03.032Z,91.95
2023-01-21T06:28:32.222Z,90.51
2023-01-21T06:31:00.081Z,90.93
2023-01-21T06:33:27.915Z,91.36
2023-01-21T06:35:55.643Z,91.16
2023-01-21T06:38:23.359Z,90.67
2023-01-21T06:40:51.155Z,89.78
2023-01-21T06:43:18.902Z,85.76
2023-01-21T06:45:48.136Z,86.21
2023-01-21T06:48:15.831Z,84.81
2023-01-21T06:50:43.649Z,86.27
2023-01-21T06:53:11.580Z,88.31
2023-01-21T06:55:39.393Z,89.18
2023-01-21T06:58:07.224Z,86.46
2023-01-21T07:00:35.053Z,89.19
2023-01-21T07:03:04.261Z,91.95
2023-01-21T07:05:32.201Z,93.60
2023-01-21T07:08:00.013Z,91.72
2023-01-21T07:10:27.831Z,89.05
2023-01-21T07:12:55.541Z,88.53
2023-01-21T07:15:23.319Z,89.33
2023-01-21T07:17:52.197Z,88.71
2023-01-21T07:20:22.620Z,90.21
2023-01-21T07:22:50.399Z,89.68
2023-01-21T07:25:18.753Z,90.73
2023-01-21T07:27:46.656Z,91.94
2023-01-21T07:30:18.853Z,89.89
2023-01-21T07:32:46.874Z,89.15
2023-01-21T07:35:14.835Z,88.88
2023-01-21T07:37:44.267Z,88.24
2023-01-21T07:40:13.164Z,88.73
2023-01-21T07:42:40.982Z,88.60
2023-01-21T07:45:09.479Z,87.59
2023-01-21T07:47:37.294Z,90.14
2023-01-21T07:50:08.510Z,88.23
2023-01-21T07:52:36.378Z,87.52
2023-01-21T07:55:07.066Z,89.34
2023-01-21T07:57:35.725Z,92.56
2023-01-21T08:00:03.466Z,92.18
2023-01-21T08:02:31.300Z,93.09
2023-01-21T08:04:59.086Z,92.14
2023-01-21T08:07:26.892Z,94.24
2023-01-21T08:09:54.695Z,91.38
2023-01-21T08:12:26.365Z,90.24
2023-01-21T08:14:54.971Z,90.00
2023-01-21T08:17:22.718Z,89.78
2023-01-21T08:19:50.539Z,88.51
2023-01-21T08:22:18.310Z,88.00
2023-01-21T08:24:46.117Z,88.31
2023-01-21T08:27:13.918Z,87.99
2023-01-21T08:29:42.995Z,88.58
2023-01-21T08:32:10.806Z,89.65
2023-01-21T08:34:38.581Z,89.24
2023-01-21T08:37:06.420Z,89.50
2023-01-21T08:39:34.177Z,91.32
2023-01-21T08:42:02.069Z,91.30
2023-01-21T08:44:29.811Z,89.94
2023-01-21T08:46:58.927Z,91.13
2023-01-21T08:49:26.631Z,89.18
2023-01-21T08:51:54.671Z,89.19
2023-01-21T08:54:22.358Z,88.73
2023-01-21T08:56:50.114Z,89.83
2023-01-21T08:59:17.974Z,90.91
2023-01-21T09:01:45.714Z,89.20
2023-01-21T09:04:14.781Z,89.89
2023-01-21T09:06:42.587Z,91.52
2023-01-21T09:09:12.148Z,92.11
2023-01-21T09:11:40.076Z,91.54
2023-01-21T09:14:07.888Z,90.99
2023-01-21T09:16:36.393Z,92.20
2023-01-21T09:19:04.417Z,91.98
2023-01-21T09:21:35.863Z,92.57
2023-01-21T09:24:03.752Z,93.40
2023-01-21T09:26:31.538Z,93.23
2023-01-21T09:29:00.469Z,95.30
2023-01-21T09:31:30.196Z,95.29
2023-01-21T09:34:00.396Z,95.34
2023-01-21T09:36:32.135Z,95.19
2023-01-21T09:39:01.700Z,94.95
2023-01-21T09:41:31.850Z,95.57
2023-01-21T09:44:08.506Z,96.76
2023-01-21T09:46:42.850Z,95.54
2023-01-21T09:49:16.552Z,95.39
2023-01-21T09:51:52.746Z,95.41
2023-01-21T09:54:27.545Z,95.12
2023-01-21T09:57:21.320Z,93.85
2023-01-21T10:00:02.103Z,93.79
2023-01-21T10:02:38.464Z,93.20
2023-01-21T10:05:40.127Z,93.83
2023-01-21T10:08:14.998Z,94.58
2023-01-21T10:10:50.305Z,94.46
2023-01-21T10:13:48.483Z,93.21
2023-01-21T10:16:23.298Z,93.05
2023-01-21T10:18:53.389Z,93.54
2023-01-21T10:21:32.083Z,93.42
2023-01-21T10:24:05.330Z,92.19
2023-01-21T10:26:35.763Z,91.02
2023-01-21T10:29:03.755Z,89.98
2023-01-21T10:31:40.207Z,90.74
2023-01-21T10:34:14.019Z,90.12
2023-01-21T10:36:58.341Z,89.83
2023-01-21T10:39:37.438Z,88.11
2023-01-21T10:42:31.591Z,88.27
2023-01-21T10:45:02.703Z,88.29
2023-01-21T10:47:40.790Z,87.26
2023-01-21T10:50:25.797Z,85.54
2023-01-21T10:53:01.219Z,83.23
2023-01-21T10:55:41.838Z,83.32
2023-01-21T10:58:28.635Z,82.59
2023-01-21T11:00:59.893Z,82.09
2023-01-21T11:03:35.072Z,78.94
2023-01-21T11:06:06.888Z,77.76
2023-01-21T11:08:34.775Z,78.36
2023-01-21T11:11:04.109Z,78.96
2023-01-21T11:13:33.650Z,78.00
2023-01-21T11:16:02.519Z,77.84
2023-01-21T11:18:33.208Z,75.45
2023-01-21T11:21:03.369Z,74.82
2023-01-21T11:23:32.764Z,73.14
2023-01-21T11:26:05.909Z,75.07
2023-01-21T11:28:35.426Z,73.24
2023-01-21T11:31:11.759Z,72.27
2023-01-21T11:33:40.686Z,72.29
2023-01-21T11:36:14.628Z,70.33
2023-01-21T11:38:43.147Z,71.44
2023-01-21T11:41:20.979Z,69.27
2023-01-21T11:43:52.376Z,70.00
2023-01-21T11:46:36.619Z,68.11
2023-01-21T11:49:25.670Z,69.49
2023-01-21T11:52:13.653Z,68.69
2023-01-21T11:54:41.374Z,68.34
2023-01-21T11:57:22.639Z,69.63
2023-01-21T11:59:53.255Z,67.75
2023-01-21T12:02:23.821Z,66.47
2023-01-21T12:04:56.599Z,67.88
2023-01-21T12:07:28.167Z,67.83
2023-01-21T12:10:06.352Z,67.22
2023-01-21T12:12:47.448Z,67.89
2023-01-21T12:15:35.968Z,66.38
2023-01-21T12:18:17.958Z,68.54
2023-01-21T12:20:53.536Z,67.28
2023-01-21T12:23:38.244Z,68.64
2023-01-21T12:26:28.560Z,67.89
2023-01-21T12:29:09.232Z,66.02
2023-01-21T12:31:43.562Z,67.49
2023-01-21T12:34:17.345Z,67.53
2023-01-21T12:36:50.869Z,66.98
2023-01-21T12:39:21.223Z,65.89
2023-01-21T12:41:56.601Z,66.33
2023-01-21T12:44:32.376Z,65.38
2023-01-21T12:47:09.955Z,66.69
2023-01-21T12:50:00.679Z,63.40
2023-01-21T12:52:39.518Z,62.38
2023-01-21T12:55:17.174Z,63.41
2023-01-21T12:57:50.992Z,62.99
2023-01-21T13:00:23.372Z,63.48
2023-01-21T13:03:01.167Z,60.64
2023-01-21T13:05:37.406Z,63.05
2023-01-21T13:08:32.779Z,60.92
2023-01-21T13:11:06.096Z,61.72
2023-01-21T13:13:38.781Z,61.21
2023-01-21T13:16:10.921Z,60.45
2023-01-21T13:18:43.460Z,59.17
2023-01-21T13:21:28.393Z,60.04
2023-01-21T13:24:01.352Z,59.62
2023-01-21T13:26:33.771Z,60.25
2023-01-21T13:29:10.225Z,59.63
2023-01-21T13:31:47.402Z,58.62
2023-01-21T13:34:23.456Z,58.05
2023-01-21T13:37:02.433Z,57.47
2023-01-21T13:39:35.832Z,56.56
2023-01-21T13:42:26.205Z,57.79
2023-01-21T13:45:09.075Z,56.79
2023-01-21T13:48:00.714Z,55.53
2023-01-21T13:50:46.477Z,56.06
2023-01-21T13:53:37.116Z,55.96
2023-01-21T13:56:23.007Z,55.80
2023-01-21T13:58:57.537Z,57.23
2023-01-21T14:01:31.038Z,55.25
2023-01-21T14:04:03.151Z,54.96
2023-01-21T14:06:38.897Z,54.65
2023-01-21T14:09:14.682Z,54.47
2023-01-21T14:11:45.825Z,54.34
2023-01-21T14:14:42.962Z,54.46
2023-01-21T14:17:35.571Z,53.17
2023-01-21T14:20:36.721Z,54.22
2023-01-21T14:23:38.238Z,53.00
2023-01-21T14:26:20.560Z,52.43
2023-01-21T14:28:58.622Z,52.48
2023-01-21T14:31:32.866Z,52.46
2023-01-21T14:34:05.833Z,51.85
2023-01-21T14:36:39.679Z,52.06
2023-01-21T14:39:21.408Z,52.08
2023-01-21T14:42:02.081Z,51.62
2023-01-21T14:44:37.774Z,52.17
2023-01-21T14:47:23.921Z,51.32
2023-01-21T14:49:53.270Z,51.08
2023-01-21T14:52:23.214Z,51.95
2023-01-21T14:54:52.388Z,52.81
2023-01-21T14:57:27.643Z,54.43
2023-01-21T15:00:03.152Z,56.38
2023-01-21T15:02:34.259Z,54.33
2023-01-21T15:05:12.901Z,54.83
2023-01-21T15:07:43.711Z,54.95
2023-01-21T15:10:19.035Z,54.46
2023-01-21T15:12:52.793Z,54.82
2023-01-21T15:15:29.394Z,55.89
2023-01-21T15:18:23.318Z,55.52
2023-01-21T15:20:53.059Z,56.02
2023-01-21T15:23:38.204Z,55.76
2023-01-21T15:26:20.616Z,56.17
2023-01-21T15:28:49.566Z,55.94
2023-01-21T15:31:42.245Z,57.09
2023-01-21T15:34:15.556Z,55.60
2023-01-21T15:36:48.480Z,56.19
2023-01-21T15:39:19.041Z,56.21
2023-01-21T15:42:01.036Z,55.03
2023-01-21T15:44:48.598Z,55.18
2023-01-21T15:47:40.080Z,56.59
2023-01-21T15:50:20.945Z,55.37
2023-01-21T15:53:06.710Z,55.31
2023-01-21T15:56:01.572Z,56.29
2023-01-21T15:58:41.329Z,55.25
2023-01-21T16:01:18.939Z,55.55
2023-01-21T16:04:13.567Z,56.28
2023-01-21T16:06:51.751Z,56.75
2023-01-21T16:09:30.436Z,56.39
2023-01-21T16:12:12.561Z,56.09
2023-01-21T16:14:54.408Z,56.44
2023-01-21T16:17:28.002Z,56.96
2023-01-21T16:19:57.503Z,56.42
2023-01-21T16:22:29.113Z,56.98
2023-01-21T16:25:02.483Z,56.49
2023-01-21T16:27:31.804Z,57.26
2023-01-21T16:30:02.992Z,56.56
2023-01-21T16:32:32.395Z,57.04
2023-01-21T16:35:01.160Z,57.92
2023-01-21T16:37:30.697Z,57.57
2023-01-21T16:40:26.795Z,57.98
2023-01-21T16:43:07.859Z,58.88
2023-01-21T16:45:37.841Z,59.33
2023-01-21T16:48:06.003Z,59.65
2023-01-21T16:50:34.046Z,60.18
2023-01-21T16:53:08.675Z,59.72
2023-01-21T16:55:45.425Z,59.78
2023-01-21T16:58:22.589Z,59.81
2023-01-21T17:01:10.626Z,60.07
2023-01-21T17:03:39.370Z,59.79
2023-01-21T17:06:11.782Z,60.93
2023-01-21T17:08:40.543Z,60.79
2023-01-21T17:11:12.030Z,62.30
2023-01-21T17:13:42.531Z,61.49
2023-01-21T17:16:21.240Z,61.52
2023-01-21T17:18:55.619Z,61.50
2023-01-21T17:21:32.230Z,61.31
2023-01-21T17:24:03.506Z,61.69
2023-01-21T17:26:34.593Z,60.72
2023-01-21T17:29:10.951Z,61.64
2023-01-21T17:31:42.345Z,61.80
2023-01-21T17:34:22.508Z,62.19
2023-01-21T17:36:51.574Z,61.98
2023-01-21T17:39:53.000Z,62.62
2023-01-21T17:42:23.320Z,62.71
2023-01-21T17:44:53.086Z,62.63
2023-01-21T17:47:24.982Z,62.46
2023-01-21T17:49:58.274Z,63.28
2023-01-21T17:52:26.686Z,62.77
2023-01-21T17:55:13.742Z,63.11
2023-01-21T17:57:41.571Z,61.92
2023-01-21T18:00:32.312Z,62.36
2023-01-21T18:03:01.442Z,62.75
2023-01-21T18:05:30.041Z,64.34
2023-01-21T18:07:57.774Z,63.03
2023-01-21T18:10:28.128Z,63.32
2023-01-21T18:12:57.813Z,63.23
2023-01-21T18:15:27.016Z,64.06
2023-01-21T18:17:56.906Z,64.01
2023-01-21T18:20:28.660Z,63.98
2023-01-21T18:22:58.435Z,64.25
2023-01-21T18:25:27.886Z,64.85
2023-01-21T18:27:56.693Z,64.50
2023-01-21T18:30:26.990Z,64.79
2023-01-21T18:32:55.285Z,65.00
2023-01-21T18:35:26.976Z,64.49
2023-01-21T18:37:56.150Z,65.53
2023-01-21T18:40:24.773Z,65.13
2023-01-21T18:42:55.470Z,65.70
2023-01-21T18:45:26.773Z,64.86
2023-01-21T18:47:55.199Z,65.03
2023-01-21T18:50:25.311Z,65.24
2023-01-21T18:52:53.558Z,66.53
2023-01-21T18:55:26.971Z,65.04
2023-01-21T18:57:56.859Z,65.38
2023-01-21T19:00:26.490Z,65.54
2023-01-21T19:02:56.613Z,65.46
2023-01-21T19:05:27.888Z,64.75
2023-01-21T19:07:55.662Z,65.65
2023-01-21T19:10:24.789Z,65.78
2023-01-21T19:12:52.674Z,67.05
2023-01-21T19:15:22.662Z,66.68
2023-01-21T19:17:52.551Z,67.71
2023-01-21T19:20:22.531Z,67.55
2023-01-21T19:22:51.647Z,66.25
2023-01-21T19:25:20.272Z,66.15
2023-01-21T19:27:51.258Z,66.06
2023-01-21T19:30:21.530Z,66.57
2023-01-21T19:32:50.841Z,66.79
2023-01-21T19:35:20.455Z,67.21
2023-01-21T19:37:50.230Z,67.31
2023-01-21T19:40:20.186Z,67.41
2023-01-21T19:42:50.361Z,68.05
2023-01-21T19:45:19.683Z,67.74
2023-01-21T19:47:49.271Z,68.88
2023-01-21T19:50:19.169Z,68.18
2023-01-21T19:52:47.759Z,69.11
2023-01-21T19:55:16.401Z,69.47
2023-01-21T19:57:45.512Z,70.12
2023-01-21T20:00:23.222Z,69.65
2023-01-21T20:02:51.029Z,70.43
2023-01-21T20:05:18.806Z,69.87
2023-01-21T20:07:48.612Z,70.19
2023-01-21T20:10:18.465Z,70.86
2023-01-21T20:12:46.930Z,70.78
2023-01-21T20:15:15.844Z,69.91
2023-01-21T20:17:47.820Z,69.39
2023-01-21T20:20:17.966Z,68.27
2023-01-21T20:22:46.491Z,67.44
2023-01-21T20:25:16.421Z,67.50
2023-01-21T20:27:45.589Z,67.78
2023-01-21T20:30:18.775Z,69.36
2023-01-21T20:32:49.126Z,69.13
2023-01-21T20:35:18.025Z,68.97
2023-01-21T20:37:48.806Z,68.72
2023-01-21T20:40:20.154Z,67.50
2023-01-21T20:42:48.515Z,66.78
2023-01-21T20:45:18.476Z,67.80
2023-01-21T20:47:50.707Z,67.93
2023-01-21T20:50:21.429Z,68.53
2023-01-21T20:52:50.238Z,71.62
2023-01-21T20:55:21.182Z,71.43
2023-01-21T20:57:49.227Z,73.12
2023-01-21T21:00:19.260Z,73.51
2023-01-21T21:02:47.293Z,73.88
2023-01-21T21:05:18.947Z,74.13
2023-01-21T21:07:47.048Z,72.53
2023-01-21T21:10:21.182Z,72.92
2023-01-21T21:12:49.866Z,73.57
2023-01-21T21:15:19.316Z,72.62
2023-01-21T21:17:47.972Z,73.53
2023-01-21T21:20:19.767Z,74.11
2023-01-21T21:22:47.930Z,74.66
2023-01-21T21:25:17.471Z,74.63
2023-01-21T21:27:46.237Z,75.25
2023-01-21T21:30:16.078Z,75.53
2023-01-21T21:32:44.745Z,76.06
2023-01-21T21:35:26.139Z,76.73
2023-01-21T21:37:55.307Z,76.09
2023-01-21T21:40:25.317Z,75.23
2023-01-21T21:43:10.822Z,74.46
2023-01-21T21:45:40.914Z,74.19
2023-01-21T21:48:34.689Z,73.21
2023-01-21T21:51:03.891Z,73.32
2023-01-21T21:53:31.904Z,74.15
2023-01-21T21:56:02.992Z,74.60
2023-01-21T21:58:30.733Z,75.94
2023-01-21T22:01:07.113Z,74.69
2023-01-21T22:03:34.943Z,73.04
2023-01-21T22:06:04.518Z,75.62
2023-01-21T22:08:32.752Z,74.73
2023-01-21T22:11:01.030Z,73.64
2023-01-21T22:13:29.655Z,74.09
2023-01-21T22:15:58.940Z,76.65
2023-01-21T22:18:27.976Z,75.61
2023-01-21T22:21:01.141Z,75.13
2023-01-21T22:23:32.352Z,73.56
2023-01-21T22:26:01.963Z,74.67
2023-01-21T22:28:30.205Z,74.77
2023-01-21T22:31:04.117Z,73.66
2023-01-21T22:33:32.295Z,75.09
2023-01-21T22:36:03.167Z,75.47
2023-01-21T22:38:34.066Z,76.10
2023-01-21T22:41:02.214Z,77.34
2023-01-21T22:43:30.074Z,76.89
2023-01-21T22:45:59.104Z,77.24
2023-01-21T22:48:27.118Z,78.50
2023-01-21T22:50:56.848Z,79.59
2023-01-21T22:53:25.575Z,80.12
2023-01-21T22:55:55.814Z,78.43
2023-01-21T22:58:23.622Z,78.50
2023-01-21T23:00:52.585Z,79.45
2023-01-21T23:03:21.759Z,78.75
2023-01-21T23:05:49.585Z,79.46
2023-01-21T23:08:18.118Z,78.67
2023-01-21T23:10:46.751Z,79.54
2023-01-21T23:13:16.984Z,80.16
2023-01-21T23:15:45.673Z,79.45
2023-01-21T23:18:14.996Z,78.77
2023-01-21T23:20:43.269Z,77.67
2023-01-21T23:23:12.383Z,77.74
2023-01-21T23:25:40.941Z,78.58
2023-01-21T23:28:09.337Z,77.11
2023-01-21T23:30:38.552Z,77.04
2023-01-21T23:33:06.367Z,77.19
2023-01-21T23:35:35.085Z,77.58
2023-01-21T23:38:03.973Z,78.00
2023-01-21T23:40:31.747Z,79.22
2023-01-21T23:42:59.479Z,77.06
2023-01-21T23:45:27.282Z,80.30
2023-01-21T23:47:56.528Z,79.94
2023-01-21T23:50:24.410Z,79.78
2023-01-21T23:52:52.181Z,78.31
2023-01-21T23:55:20.038Z,78.59
2023-01-21T23:57:47.798Z,78.60
